Time;durP1;ratioP1;P1;durP2;ratioP2;P2;SDS_P1;SDS_P2;PMS_P1;PMS_P2;Temp;Humidity;BMP_temperature;BMP_pressure;BME280_temperature;BME280_humidity;BME280_pressure;Samples;Min_cycle;Max_cycle;Signal;HPM_P1;HPM_P2
2024/01/25 00:01:24;;;;;;;;;;;;;;;6.70;100.00;102712.66;5050963;28;19952;-71
2024/01/25 00:03:50;;;;;;;;;;;;;;;6.62;100.00;102714.97;5046863;28;19978;-72
2024/01/25 00:06:15;;;;;;;;;;;;;;;6.56;100.00;102720.84;5037775;28;20378;-72
2024/01/25 00:08:40;;;;;;;;;;;;;;;6.49;100.00;102721.47;5036621;28;19929;-72
2024/01/25 00:11:06;;;;;;;;;;;;;;;6.45;100.00;102732.63;5035509;28;20383;-71
2024/01/25 00:13:32;;;;;;;;;;;;;;;6.41;100.00;102729.03;5053340;28;19920;-70
2024/01/25 00:15:57;;;;;;;;;;;;;;;6.38;100.00;102708.09;5036661;28;19921;-68
2024/01/25 00:18:22;;;;;;;;;;;;;;;6.33;100.00;102722.66;5037654;28;20023;-68
2024/01/25 00:20:48;;;;;;;;;;;;;;;6.29;100.00;102738.09;5054555;28;20331;-68
2024/01/25 00:23:13;;;;;;;;;;;;;;;6.19;100.00;102735.19;5031447;28;20369;-68
2024/01/25 00:25:39;;;;;;;;;;;;;;;6.12;100.00;102727.06;5036492;28;19921;-68
2024/01/25 00:28:04;;;;;;;;;;;;;;;6.05;100.00;102718.16;5045707;28;20345;-71
2024/01/25 00:30:30;;;;;;;;;;;;;;;5.98;100.00;102731.78;5048128;28;19921;-71
2024/01/25 00:32:58;;;;;;;;;;;;;;;5.90;100.00;102726.25;5037009;28;19929;-71
2024/01/25 00:35:24;;;;;;;;;;;;;;;5.86;100.00;102726.94;5051121;28;19928;-71
2024/01/25 00:37:49;;;;;;;;;;;;;;;5.78;100.00;102723.19;5045179;28;20279;-72
2024/01/25 00:40:14;;;;;;;;;;;;;;;5.75;100.00;102728.25;5042766;28;19966;-71
2024/01/25 00:42:53;;;;;;;;;;;;;;;5.70;100.00;102728.06;5042707;28;19931;-72
2024/01/25 00:45:19;;;;;;;;;;;;;;;5.62;100.00;102737.31;5035142;28;20296;-71
2024/01/25 00:47:44;;;;;;;;;;;;;;;5.60;100.00;102733.75;5027547;28;19932;-71
2024/01/25 00:50:10;;;;;;;;;;;;;;;5.52;100.00;102744.75;5038079;28;20011;-71
2024/01/25 00:52:37;;;;;;;;;;;;;;;5.46;100.00;102738.41;5042579;28;20423;-71
2024/01/25 00:55:03;;;;;;;;;;;;;;;5.42;100.00;102732.22;5033690;28;19927;-71
2024/01/25 00:57:28;;;;;;;;;;;;;;;5.38;100.00;102732.91;5050903;28;19916;-71
2024/01/25 00:59:55;;;;;;;;;;;;;;;5.37;100.00;102742.44;5042980;28;19917;-71
2024/01/25 01:02:21;;;;;;;;;;;;;;;5.32;100.00;102730.94;5033160;28;20033;-71
2024/01/25 01:04:47;;;;;;;;;;;;;;;5.28;100.00;102746.38;5042318;28;19920;-71
2024/01/25 01:07:12;;;;;;;;;;;;;;;5.22;100.00;102752.19;5036286;28;19936;-71
2024/01/25 01:09:37;;;;;;;;;;;;;;;5.18;100.00;102745.97;5033818;28;19927;-71
2024/01/25 01:12:03;;;;;;;;;;;;;;;5.17;100.00;102746.81;5033064;28;20470;-71
2024/01/25 01:14:28;;;;;;;;;;;;;;;5.16;100.00;102750.22;5047111;28;20303;-71
2024/01/25 01:16:55;;;;;;;;;;;;;;;5.13;100.00;102763.09;5064150;28;19921;-71
2024/01/25 01:19:20;;;;;;;;;;;;;;;5.08;100.00;102751.63;5052316;28;19916;-71
2024/01/25 01:21:46;;;;;;;;;;;;;;;5.05;100.00;102756.69;5050890;28;20014;-71
2024/01/25 01:24:11;;;;;;;;;;;;;;;5.01;100.00;102754.78;5051980;28;19931;-71
2024/01/25 01:26:37;;;;;;;;;;;;;;;4.97;100.00;102752.88;5024023;28;19921;-71
2024/01/25 01:29:02;;;;;;;;;;;;;;;4.92;100.00;102759.59;5050184;28;20636;-71
2024/01/25 01:39:06;;;;;;;;;;;;;;;4.72;100.00;102763.94;4371072;22;19929;-68
2024/01/25 02:25:41;;;;;;;;;;;;;;;4.23;100.00;102831.03;5073277;28;20011;-71
2024/01/25 02:28:06;;;;;;;;;;;;;;;4.18;100.00;102826.44;5051231;28;20015;-71
2024/01/25 02:30:32;;;;;;;;;;;;;;;4.10;100.00;102829.56;5035052;28;19917;-68
2024/01/25 03:03:58;;;;;;;;;;;;;;;3.55;100.00;102816.53;555028;26;20214;-70
2024/01/25 03:06:24;;;;;;;;;;;;;;;3.49;100.00;102818.84;5038287;28;19967;-71
2024/01/25 03:08:49;;;;;;;;;;;;;;;3.42;100.00;102818.53;5044452;28;19924;-71
2024/01/25 03:11:14;;;;;;;;;;;;;;;3.39;100.00;102809.72;5041895;28;19920;-70
2024/01/25 03:13:39;;;;;;;;;;;;;;;3.35;100.00;102808.69;5026207;28;19921;-71
2024/01/25 03:16:05;;;;;;;;;;;;;;;3.30;100.00;102804.97;5034856;28;19935;-71
2024/01/25 03:18:30;;;;;;;;;;;;;;;3.26;100.00;102814.31;5023213;28;19932;-70
2024/01/25 03:20:56;;;;;;;;;;;;;;;3.23;100.00;102818.44;5033881;28;19935;-71
2024/01/25 03:23:21;;;;;;;;;;;;;;;3.22;100.00;102821.81;5039220;28;19916;-71
2024/01/25 03:25:46;;;;;;;;;;;;;;;3.20;100.00;102815.69;5038446;28;19990;-71
2024/01/25 03:28:13;;;;;;;;;;;;;;;3.16;100.00;102822.44;5054014;28;20345;-71
2024/01/25 03:30:39;;;;;;;;;;;;;;;3.11;100.00;102827.34;5028293;28;19925;-71
2024/01/25 03:33:05;;;;;;;;;;;;;;;3.06;100.00;102831.44;5034859;28;19966;-71
2024/01/25 03:35:30;;;;;;;;;;;;;;;2.99;100.00;102831.94;5020134;28;19924;-71
2024/01/25 03:37:56;;;;;;;;;;;;;;;2.97;100.00;102840.41;5017676;28;19921;-71
2024/01/25 03:40:23;;;;;;;;;;;;;;;2.92;100.00;102842.78;5028806;28;19929;-68
2024/01/25 03:42:49;;;;;;;;;;;;;;;2.91;100.00;102835.81;5039893;28;20297;-68
2024/01/25 03:45:14;;;;;;;;;;;;;;;2.86;100.00;102832.09;5027328;28;19927;-68
2024/01/25 03:47:39;;;;;;;;;;;;;;;2.80;100.00;102826.59;5031177;28;20001;-68
2024/01/25 03:50:05;;;;;;;;;;;;;;;2.76;100.00;102825.56;5029171;28;19933;-68
2024/01/25 03:52:30;;;;;;;;;;;;;;;2.72;100.00;102829.66;5029040;28;19925;-68
2024/01/25 03:54:55;;;;;;;;;;;;;;;2.66;100.00;102824.19;5022158;28;19925;-68
2024/01/25 03:57:21;;;;;;;;;;;;;;;2.59;100.00;102842.78;5019107;28;19925;-68
2024/01/25 03:59:46;;;;;;;;;;;;;;;2.49;100.00;102832.75;5045214;28;20335;-68
2024/01/25 04:02:12;;;;;;;;;;;;;;;2.51;100.00;102844.06;5060734;28;19917;-68
2024/01/25 04:04:37;;;;;;;;;;;;;;;2.51;100.00;102836.31;5042525;28;19924;-68
2024/01/25 04:07:02;;;;;;;;;;;;;;;2.48;100.00;102843.91;5023403;28;19968;-68
2024/01/25 04:09:28;;;;;;;;;;;;;;;2.39;100.00;102840.00;5028500;28;19935;-68
2024/01/25 04:11:53;;;;;;;;;;;;;;;2.37;100.00;102838.13;5020293;28;20292;-68
2024/01/25 04:14:18;;;;;;;;;;;;;;;2.33;100.00;102843.94;5039185;28;19921;-68
2024/01/25 04:16:46;;;;;;;;;;;;;;;2.30;100.00;102843.78;5039872;28;20351;-68
2024/01/25 04:19:12;;;;;;;;;;;;;;;2.31;100.00;102840.41;5018279;28;19982;-68
2024/01/25 04:21:38;;;;;;;;;;;;;;;2.30;100.00;102839.53;5022699;28;20384;-68
2024/01/25 04:24:04;;;;;;;;;;;;;;;2.27;100.00;102839.38;5043478;28;19931;-68
2024/01/25 04:26:29;;;;;;;;;;;;;;;2.23;100.00;102842.59;5036889;28;19917;-68
2024/01/25 04:31:58;;;;;;;;;;;;;;;2.15;100.00;102838.69;5054316;28;20390;-68
2024/01/25 04:34:24;;;;;;;;;;;;;;;2.11;100.00;102832.44;5026492;28;20070;-68
2024/01/25 04:36:49;;;;;;;;;;;;;;;2.08;100.00;102837.44;5035354;28;19952;-68
2024/01/25 04:39:14;;;;;;;;;;;;;;;2.05;100.00;102843.38;5032432;28;19927;-68
2024/01/25 04:41:42;;;;;;;;;;;;;;;2.03;100.00;102838.91;5022101;28;20399;-68
2024/01/25 04:44:07;;;;;;;;;;;;;;;2.02;100.00;102838.00;5028510;28;19921;-68
2024/01/25 04:46:36;;;;;;;;;;;;;;;2.00;100.00;102839.63;5020492;28;19921;-68
2024/01/25 04:49:02;;;;;;;;;;;;;;;1.99;100.00;102840.41;5045517;28;19916;-68
2024/01/25 04:51:27;;;;;;;;;;;;;;;1.97;100.00;102847.22;5036898;28;20004;-68
2024/01/25 04:53:52;;;;;;;;;;;;;;;1.96;100.00;102842.84;5021592;28;19921;-68
2024/01/25 04:56:18;;;;;;;;;;;;;;;1.93;100.00;102842.66;5014359;28;20357;-68
2024/01/25 04:58:43;;;;;;;;;;;;;;;1.93;100.00;102842.66;5007290;28;19920;-68
2024/01/25 05:01:08;;;;;;;;;;;;;;;1.88;100.00;102833.75;5018321;28;19932;-68
2024/01/25 05:03:34;;;;;;;;;;;;;;;1.86;100.00;102838.84;5020106;28;20002;-68
2024/01/25 05:05:59;;;;;;;;;;;;;;;1.85;100.00;102833.59;5024425;28;19920;-68
2024/01/25 05:08:24;;;;;;;;;;;;;;;1.86;100.00;102830.19;5035125;28;19929;-68
2024/01/25 05:10:52;;;;;;;;;;;;;;;1.88;100.00;102831.16;5035247;28;19931;-68
2024/01/25 05:13:18;;;;;;;;;;;;;;;1.86;100.00;102832.78;5046248;28;20387;-68
2024/01/25 05:15:44;;;;;;;;;;;;;;;1.88;100.00;102836.34;5024639;28;20036;-68
2024/01/25 05:18:09;;;;;;;;;;;;;;;1.90;100.00;102832.16;5028340;28;20011;-68
2024/01/25 05:20:36;;;;;;;;;;;;;;;1.89;100.00;102820.03;5022442;28;19966;-67
2024/01/25 05:23:03;;;;;;;;;;;;;;;1.89;100.00;102828.66;5029248;28;19921;-67
2024/01/25 05:25:29;;;;;;;;;;;;;;;1.89;100.00;102820.03;5036960;28;19917;-67
2024/01/25 05:27:55;;;;;;;;;;;;;;;1.94;100.00;102818.59;5045381;28;19937;-70
2024/01/25 05:30:20;;;;;;;;;;;;;;;1.98;100.00;102822.22;5031811;28;20274;-70
2024/01/25 05:32:48;;;;;;;;;;;;;;;1.97;100.00;102823.94;5030248;28;19929;-70
2024/01/25 05:35:13;;;;;;;;;;;;;;;2.01;100.00;102827.56;5017238;28;20284;-70
2024/01/25 05:37:39;;;;;;;;;;;;;;;1.99;100.00;102832.66;5048507;28;19920;-70
2024/01/25 05:40:05;;;;;;;;;;;;;;;1.96;100.00;102827.31;5021190;28;19921;-70
2024/01/25 05:42:30;;;;;;;;;;;;;;;1.94;100.00;102828.94;5020102;28;19967;-70
2024/01/25 05:44:55;;;;;;;;;;;;;;;1.90;100.00;102827.88;5009347;28;20024;-70
2024/01/25 05:47:21;;;;;;;;;;;;;;;1.87;100.00;102840.63;5018241;28;20289;-67
2024/01/25 05:49:46;;;;;;;;;;;;;;;1.85;100.00;102849.09;5011598;28;20384;-67
2024/01/25 05:52:12;;;;;;;;;;;;;;;1.79;100.00;102846.16;5018397;28;19928;-67
2024/01/25 05:54:37;;;;;;;;;;;;;;;1.77;100.00;102856.44;5024953;28;19924;-67
2024/01/25 05:57:03;;;;;;;;;;;;;;;1.75;100.00;102854.56;5046838;28;19921;-67
2024/01/25 05:59:30;;;;;;;;;;;;;;;1.73;100.00;102865.69;5055566;28;19921;-67
2024/01/25 06:01:55;;;;;;;;;;;;;;;1.70;100.00;102867.22;5030978;28;19987;-67
2024/01/25 06:04:21;;;;;;;;;;;;;;;1.69;100.00;102868.91;5036239;28;20026;-67
2024/01/25 06:06:46;;;;;;;;;;;;;;;1.66;100.00;102857.50;5016539;28;19925;-67
2024/01/25 06:09:11;;;;;;;;;;;;;;;1.65;100.00;102850.53;5032891;28;19933;-67
2024/01/25 06:11:37;;;;;;;;;;;;;;;1.61;100.00;102839.16;5023695;28;19920;-67
2024/01/25 06:14:04;;;;;;;;;;;;;;;1.59;100.00;102843.31;5043941;28;19963;-67
2024/01/25 06:16:30;;;;;;;;;;;;;;;1.55;100.00;102851.72;5034158;28;19916;-68
2024/01/25 06:18:55;;;;;;;;;;;;;;;1.50;100.00;102850.56;5042346;28;19931;-70
2024/01/25 06:21:21;;;;;;;;;;;;;;;1.49;100.00;102859.13;5021905;28;19932;-70
2024/01/25 06:23:46;;;;;;;;;;;;;;;1.50;100.00;102866.06;5013873;28;20011;-67
2024/01/25 06:26:11;;;;;;;;;;;;;;;1.47;100.00;102871.94;5028137;28;19920;-67
2024/01/25 06:28:37;;;;;;;;;;;;;;;1.38;100.00;102874.88;5031659;28;19929;-67
2024/01/25 06:31:02;;;;;;;;;;;;;;;1.36;100.00;102863.56;5041158;28;19917;-67
2024/01/25 06:33:30;;;;;;;;;;;;;;;1.33;100.00;102865.97;5020101;28;19979;-70
2024/01/25 06:35:57;;;;;;;;;;;;;;;1.27;100.00;102862.16;5046569;28;19920;-70
2024/01/25 06:38:25;;;;;;;;;;;;;;;1.22;100.00;102864.44;5032010;28;20008;-70
2024/01/25 06:40:50;;;;;;;;;;;;;;;1.20;100.00;102871.22;5023333;28;19928;-70
2024/01/25 06:43:15;;;;;;;;;;;;;;;1.16;100.00;102871.81;5012292;28;19925;-67
2024/01/25 06:45:41;;;;;;;;;;;;;;;1.14;100.00;102878.59;5020067;28;20004;-67
2024/01/25 06:48:08;;;;;;;;;;;;;;;1.11;100.00;102878.44;5023193;28;19986;-67
2024/01/25 06:50:33;;;;;;;;;;;;;;;1.08;100.00;102884.28;5029353;28;19916;-67
2024/01/25 06:52:59;;;;;;;;;;;;;;;1.09;100.00;102892.91;5012751;28;19928;-67
2024/01/25 06:55:24;;;;;;;;;;;;;;;1.08;100.00;102886.88;5036641;28;19928;-67
2024/01/25 06:57:49;;;;;;;;;;;;;;;1.08;100.00;102894.63;5036662;28;19921;-66
2024/01/25 07:00:16;;;;;;;;;;;;;;;1.06;100.00;102885.88;5030048;28;20515;-66
2024/01/25 07:02:42;;;;;;;;;;;;;;;1.02;100.00;102871.91;5034473;28;19990;-70
2024/01/25 07:05:07;;;;;;;;;;;;;;;1.01;100.00;102874.41;5039957;28;20380;-70
2024/01/25 07:07:33;;;;;;;;;;;;;;;0.99;100.00;102871.72;5032409;28;19944;-71
2024/01/25 07:09:58;;;;;;;;;;;;;;;0.98;100.00;102880.25;5018797;28;19924;-70
2024/01/25 07:12:24;;;;;;;;;;;;;;;0.94;100.00;102890.31;5025424;28;19939;-70
2024/01/25 07:14:49;;;;;;;;;;;;;;;0.89;100.00;102877.13;5045991;28;20326;-70
2024/01/25 07:17:14;;;;;;;;;;;;;;;0.85;100.00;102873.47;5018142;28;20281;-70
2024/01/25 07:19:39;;;;;;;;;;;;;;;0.86;100.00;102870.09;5047818;28;19963;-70
2024/01/25 07:22:05;;;;;;;;;;;;;;;0.95;100.00;102869.75;5036367;28;19928;-70
2024/01/25 07:24:30;;;;;;;;;;;;;;;1.03;100.00;102862.47;5020208;28;20279;-70
2024/01/25 07:26:56;;;;;;;;;;;;;;;1.10;100.00;102869.78;5020261;28;19927;-70
2024/01/25 07:29:21;;;;;;;;;;;;;;;1.14;100.00;102870.84;5038244;28;20012;-70
2024/01/25 07:31:46;;;;;;;;;;;;;;;1.20;100.00;102884.13;5053367;28;19917;-70
2024/01/25 07:34:12;;;;;;;;;;;;;;;1.21;100.00;102878.16;5045400;28;19921;-70
2024/01/25 07:36:37;;;;;;;;;;;;;;;1.25;100.00;102877.56;5036620;28;20270;-70
2024/01/25 07:39:03;;;;;;;;;;;;;;;1.31;100.00;102877.03;5035711;28;19924;-70
2024/01/25 07:41:28;;;;;;;;;;;;;;;1.41;100.00;102878.44;5036413;28;19925;-70
2024/01/25 07:43:55;;;;;;;;;;;;;;;1.49;100.00;102895.28;5035322;28;20483;-70
2024/01/25 07:46:20;;;;;;;;;;;;;;;1.58;100.00;102900.09;5053041;28;19913;-70
2024/01/25 07:48:46;;;;;;;;;;;;;;;1.70;100.00;102895.66;5052154;28;20295;-70
2024/01/25 07:51:13;;;;;;;;;;;;;;;1.83;100.00;102887.78;5050114;28;20010;-70
2024/01/25 07:53:38;;;;;;;;;;;;;;;1.97;100.00;102891.16;5055488;28;20050;-70
2024/01/25 07:56:03;;;;;;;;;;;;;;;2.08;100.00;102887.50;5027076;28;20051;-71
2024/01/25 07:58:30;;;;;;;;;;;;;;;2.18;100.00;102888.88;5015284;28;19917;-70
2024/01/25 08:00:55;;;;;;;;;;;;;;;2.30;100.00;102896.44;5016231;28;19991;-70
2024/01/25 08:03:22;;;;;;;;;;;;;;;2.38;100.00;102897.72;5015687;28;20409;-70
2024/01/25 08:05:47;;;;;;;;;;;;;;;2.44;100.00;102904.94;5028592;28;19979;-71
2024/01/25 08:08:12;;;;;;;;;;;;;;;2.52;100.00;102902.78;5035087;28;19968;-70
2024/01/25 08:10:38;;;;;;;;;;;;;;;2.58;100.00;102897.94;5035942;28;19917;-70
2024/01/25 08:13:03;;;;;;;;;;;;;;;2.65;100.00;102894.88;5034828;28;20266;-71
2024/01/25 08:15:29;;;;;;;;;;;;;;;2.67;100.00;102892.38;5035869;28;20359;-71
2024/01/25 08:17:54;;;;;;;;;;;;;;;2.72;100.00;102891.81;5051519;28;19913;-71
2024/01/25 08:20:20;;;;;;;;;;;;;;;2.76;100.00;102908.41;5035844;28;20367;-71
2024/01/25 08:22:46;;;;;;;;;;;;;;;2.84;100.00;102914.00;5034900;28;20461;-70
2024/01/25 08:25:13;;;;;;;;;;;;;;;2.87;100.00;102907.25;5067310;28;19912;-71
2024/01/25 08:27:39;;;;;;;;;;;;;;;2.96;100.00;102906.88;5024386;28;20018;-71
2024/01/25 08:30:04;;;;;;;;;;;;;;;3.04;100.00;102900.38;5030481;28;19917;-71
2024/01/25 08:32:34;;;;;;;;;;;;;;;3.16;100.00;102904.44;5018483;28;19995;-71
2024/01/25 08:34:59;;;;;;;;;;;;;;;3.25;100.00;102904.91;5018767;28;19951;-71
2024/01/25 08:37:25;;;;;;;;;;;;;;;3.36;100.00;102908.97;5017968;28;19929;-71
2024/01/25 08:39:50;;;;;;;;;;;;;;;3.51;100.00;102902.78;5034742;28;19920;-71
2024/01/25 08:42:16;;;;;;;;;;;;;;;3.63;100.00;102883.53;5018107;28;20320;-71
2024/01/25 08:44:48;;;;;;;;;;;;;;;3.75;100.00;102872.88;5033095;28;20312;-67
2024/01/25 08:47:14;;;;;;;;;;;;;;;3.88;100.00;102878.63;5019245;28;20356;-67
2024/01/25 08:49:39;;;;;;;;;;;;;;;4.06;100.00;102886.44;5006798;28;19953;-67
2024/01/25 08:52:05;;;;;;;;;;;;;;;4.27;100.00;102878.78;5029925;28;19921;-67
2024/01/25 08:54:30;;;;;;;;;;;;;;;4.47;100.00;102888.38;5019231;28;19959;-67
2024/01/25 08:56:56;;;;;;;;;;;;;;;4.64;100.00;102891.75;5020323;28;19964;-67
2024/01/25 08:59:21;;;;;;;;;;;;;;;4.86;100.00;102908.31;5023772;28;19948;-67
2024/01/25 09:01:47;;;;;;;;;;;;;;;5.11;100.00;102917.19;5034746;28;19912;-67
2024/01/25 09:04:13;;;;;;;;;;;;;;;5.29;100.00;102920.59;5001830;28;19967;-67
2024/01/25 09:06:40;;;;;;;;;;;;;;;5.46;100.00;102933.41;5030947;28;20012;-67
2024/01/25 09:09:06;;;;;;;;;;;;;;;5.58;100.00;102933.09;5022977;28;19933;-67
2024/01/25 09:11:31;;;;;;;;;;;;;;;5.63;100.00;102922.06;5030314;28;19932;-67
2024/01/25 09:13:57;;;;;;;;;;;;;;;5.61;100.00;102928.00;5033491;28;20035;-67
2024/01/25 09:16:22;;;;;;;;;;;;;;;5.57;100.00;102931.28;5017969;28;19921;-67
2024/01/25 09:18:48;;;;;;;;;;;;;;;5.55;100.00;102931.22;5012873;28;20341;-67
2024/01/25 09:21:13;;;;;;;;;;;;;;;5.60;100.00;102934.91;5020510;28;19946;-67
2024/01/25 09:23:39;;;;;;;;;;;;;;;5.65;100.00;102924.72;5019859;28;19917;-67
2024/01/25 09:26:04;;;;;;;;;;;;;;;5.63;100.00;102924.66;5025190;28;19921;-67
2024/01/25 09:28:30;;;;;;;;;;;;;;;5.70;100.00;102926.69;5033879;28;19925;-71
2024/01/25 09:30:55;;;;;;;;;;;;;;;5.82;100.00;102914.97;5017640;28;19929;-72
2024/01/25 09:33:21;;;;;;;;;;;;;;;5.93;100.00;102912.84;5017113;28;19924;-71
2024/01/25 09:35:47;;;;;;;;;;;;;;;6.09;100.00;102903.97;5006828;28;19957;-72
2024/01/25 09:38:12;;;;;;;;;;;;;;;6.24;100.00;102908.06;5045928;28;19923;-71
2024/01/25 09:40:38;;;;;;;;;;;;;;;6.42;100.00;102907.00;5016952;28;20300;-70
2024/01/25 09:43:03;;;;;;;;;;;;;;;6.65;100.00;102902.69;5015716;28;19964;-72
2024/01/25 09:45:33;;;;;;;;;;;;;;;6.97;100.00;102913.41;5007485;28;19971;-71
2024/01/25 09:47:58;;;;;;;;;;;;;;;7.31;99.67;102913.72;5013266;28;19995;-72
2024/01/25 09:50:24;;;;;;;;;;;;;;;7.65;96.63;102920.97;5031334;28;19921;-72
2024/01/25 09:52:55;;;;;;;;;;;;;;;8.00;98.48;102917.75;5017044;28;19982;-67
2024/01/25 09:55:23;;;;;;;;;;;;;;;8.22;97.19;102924.56;5033868;28;20008;-67
2024/01/25 09:57:49;;;;;;;;;;;;;;;8.52;97.00;102914.19;5030476;28;19917;-67
2024/01/25 10:00:15;;;;;;;;;;;;;;;8.99;96.57;102901.63;5018529;28;20051;-67
2024/01/25 10:02:40;;;;;;;;;;;;;;;9.36;97.02;102901.72;5012850;28;20408;-68
2024/01/25 10:05:06;;;;;;;;;;;;;;;9.67;96.59;102900.78;5014391;28;19917;-67
2024/01/25 10:07:36;;;;;;;;;;;;;;;9.70;95.50;102898.22;4997380;28;19991;-67
2024/01/25 10:10:01;;;;;;;;;;;;;;;9.67;95.73;102890.31;5030370;28;19921;-68
2024/01/25 10:12:26;;;;;;;;;;;;;;;9.49;93.97;102897.69;5033370;28;19920;-68
2024/01/25 10:14:52;;;;;;;;;;;;;;;9.35;95.08;102902.53;5053781;28;20444;-68
2024/01/25 10:17:17;;;;;;;;;;;;;;;9.09;95.69;102897.50;5034051;28;20302;-68
2024/01/25 10:19:43;;;;;;;;;;;;;;;8.83;95.01;102892.47;5053252;28;20367;-68
2024/01/25 10:22:08;;;;;;;;;;;;;;;8.67;96.61;102904.16;5040761;28;19948;-68
2024/01/25 10:24:34;;;;;;;;;;;;;;;8.68;97.53;102894.63;5013572;28;19920;-68
2024/01/25 10:26:59;;;;;;;;;;;;;;;8.76;97.53;102884.38;5018769;28;19975;-68
2024/01/25 10:29:25;;;;;;;;;;;;;;;8.78;97.45;102890.56;5030187;28;19933;-68
2024/01/25 10:31:53;;;;;;;;;;;;;;;8.72;98.06;102890.34;5016553;28;19933;-68
2024/01/25 10:34:18;;;;;;;;;;;;;;;8.61;97.73;102884.84;5023090;28;20071;-68
2024/01/25 10:36:44;;;;;;;;;;;;;;;8.45;98.50;102887.00;5048366;28;20380;-68
2024/01/25 10:39:09;;;;;;;;;;;;;;;8.39;99.18;102870.19;5000538;28;19921;-68
2024/01/25 10:41:35;;;;;;;;;;;;;;;8.27;98.90;102876.81;5020744;28;20039;-68
2024/01/25 10:44:01;;;;;;;;;;;;;;;8.14;99.67;102880.78;5008520;28;20018;-68
2024/01/25 10:46:28;;;;;;;;;;;;;;;8.09;99.70;102879.78;5013804;28;20345;-67
2024/01/25 10:48:57;;;;;;;;;;;;;;;8.14;98.97;102865.09;5027424;28;20481;-68
2024/01/25 10:51:23;;;;;;;;;;;;;;;7.96;98.84;102859.34;5033204;28;20050;-68
2024/01/25 10:53:49;;;;;;;;;;;;;;;7.89;99.79;102860.00;5017869;28;19950;-67
2024/01/25 10:56:14;;;;;;;;;;;;;;;7.87;100.00;102865.13;5029780;28;20381;-68
2024/01/25 10:58:43;;;;;;;;;;;;;;;7.90;100.00;102865.25;5015841;28;20289;-68
2024/01/25 11:01:11;;;;;;;;;;;;;;;7.88;99.63;102872.13;5038231;28;19912;-67
2024/01/25 11:03:36;;;;;;;;;;;;;;;7.95;99.10;102857.56;5055987;28;19973;-68
2024/01/25 11:06:09;;;;;;;;;;;;;;;7.90;99.57;102860.03;5036008;28;20439;-67
2024/01/25 11:08:37;;;;;;;;;;;;;;;7.83;99.54;102847.63;5055889;28;19963;-72
2024/01/25 11:11:03;;;;;;;;;;;;;;;7.87;99.67;102852.09;5040405;28;19967;-72
2024/01/25 11:13:29;;;;;;;;;;;;;;;7.84;99.89;102841.53;5045529;28;19964;-72
2024/01/25 11:15:55;;;;;;;;;;;;;;;7.77;100.00;102845.72;5017716;28;20360;-72
2024/01/25 11:18:24;;;;;;;;;;;;;;;7.84;100.00;102846.78;5036385;28;20007;-72
2024/01/25 11:20:50;;;;;;;;;;;;;;;7.88;100.00;102840.81;5048280;28;20373;-72
2024/01/25 11:23:16;;;;;;;;;;;;;;;7.87;99.46;102833.81;5032667;28;19927;-72
2024/01/25 11:25:44;;;;;;;;;;;;;;;7.76;100.00;102825.66;5036740;28;20331;-72
2024/01/25 11:28:10;;;;;;;;;;;;;;;7.82;100.00;102824.97;5035064;28;19921;-72
2024/01/25 11:30:37;;;;;;;;;;;;;;;7.72;100.00;102817.69;5036490;28;19928;-72
2024/01/25 11:33:07;;;;;;;;;;;;;;;7.58;100.00;102807.69;5032152;28;20293;-72
2024/01/25 11:35:32;;;;;;;;;;;;;;;7.55;100.00;102794.53;5051265;28;20288;-68
2024/01/25 11:37:58;;;;;;;;;;;;;;;7.47;100.00;102790.81;5016587;28;19921;-72
2024/01/25 11:40:23;;;;;;;;;;;;;;;7.45;100.00;102789.88;5016424;28;19925;-72
2024/01/25 11:42:50;;;;;;;;;;;;;;;7.49;100.00;102788.25;5048388;28;20397;-72
2024/01/25 11:45:15;;;;;;;;;;;;;;;7.53;100.00;102795.31;5032898;28;20377;-72
2024/01/25 11:47:41;;;;;;;;;;;;;;;7.50;100.00;102806.56;5031645;28;19936;-72
2024/01/25 11:50:08;;;;;;;;;;;;;;;7.54;100.00;102799.69;5052683;28;19924;-72
2024/01/25 11:52:34;;;;;;;;;;;;;;;7.55;100.00;102799.75;5026704;28;20285;-67
2024/01/25 11:55:01;;;;;;;;;;;;;;;7.61;100.00;102799.97;5033269;28;19920;-72
2024/01/25 11:57:27;;;;;;;;;;;;;;;7.50;100.00;102793.53;5030293;28;19913;-72
2024/01/25 11:59:53;;;;;;;;;;;;;;;7.56;100.00;102796.31;5035384;28;19921;-67
2024/01/25 12:02:18;;;;;;;;;;;;;;;7.52;100.00;102789.22;5015404;28;19918;-67
2024/01/25 12:04:46;;;;;;;;;;;;;;;7.54;100.00;102803.22;5031006;28;19936;-68
2024/01/25 12:07:11;;;;;;;;;;;;;;;7.54;100.00;102795.41;5051866;28;19931;-71
2024/01/25 12:09:37;;;;;;;;;;;;;;;7.44;100.00;102794.22;5010564;28;20011;-67
2024/01/25 12:12:04;;;;;;;;;;;;;;;7.55;100.00;102789.31;5008961;28;19927;-67
2024/01/25 12:14:30;;;;;;;;;;;;;;;7.39;100.00;102787.06;5039494;28;19921;-71
2024/01/25 12:16:56;;;;;;;;;;;;;;;7.36;100.00;102781.75;5026660;28;19931;-72
2024/01/25 12:19:21;;;;;;;;;;;;;;;7.42;100.00;102782.81;5028395;28;19924;-67
2024/01/25 12:21:47;;;;;;;;;;;;;;;7.49;100.00;102763.03;5027274;28;20407;-72
2024/01/25 12:24:12;;;;;;;;;;;;;;;7.65;100.00;102746.16;5012123;28;19921;-68
2024/01/25 12:26:38;;;;;;;;;;;;;;;7.55;100.00;102751.91;5017117;28;19918;-68
2024/01/25 12:29:04;;;;;;;;;;;;;;;7.41;100.00;102739.34;5010774;28;19924;-68
2024/01/25 12:31:30;;;;;;;;;;;;;;;7.46;100.00;102727.31;5018959;28;19924;-72
2024/01/25 12:33:56;;;;;;;;;;;;;;;7.55;100.00;102724.09;5013372;28;20321;-72
2024/01/25 12:36:22;;;;;;;;;;;;;;;7.51;100.00;102731.78;5001396;28;19971;-68
2024/01/25 12:38:48;;;;;;;;;;;;;;;7.44;100.00;102736.81;5023541;28;19944;-71
2024/01/25 12:41:14;;;;;;;;;;;;;;;7.34;100.00;102744.28;5032003;28;19916;-68
2024/01/25 12:43:40;;;;;;;;;;;;;;;7.36;100.00;102755.66;5034225;28;19920;-68
2024/01/25 12:46:05;;;;;;;;;;;;;;;7.53;100.00;102738.81;5030767;28;20361;-71
2024/01/25 12:48:31;;;;;;;;;;;;;;;7.58;100.00;102721.56;5051359;28;19935;-71
2024/01/25 12:50:56;;;;;;;;;;;;;;;7.39;100.00;102729.69;5013450;28;19921;-71
2024/01/25 12:53:22;;;;;;;;;;;;;;;7.46;100.00;102726.44;5017902;28;19917;-71
2024/01/25 12:55:51;;;;;;;;;;;;;;;7.45;100.00;102724.66;5018473;28;20288;-67
2024/01/25 12:58:19;;;;;;;;;;;;;;;7.32;100.00;102714.69;5032714;28;20387;-71
2024/01/25 13:00:45;;;;;;;;;;;;;;;7.48;100.00;102709.09;5003050;28;20332;-72
2024/01/25 13:03:11;;;;;;;;;;;;;;;7.43;100.00;102711.56;5004390;28;19956;-67
2024/01/25 13:05:39;;;;;;;;;;;;;;;7.49;100.00;102705.66;5020817;28;20017;-67
2024/01/25 13:08:04;;;;;;;;;;;;;;;7.43;100.00;102702.84;5026364;28;20293;-72
2024/01/25 13:10:29;;;;;;;;;;;;;;;7.51;100.00;102705.69;5037446;28;19920;-72
2024/01/25 13:12:55;;;;;;;;;;;;;;;7.38;100.00;102718.34;5018299;28;19968;-69
2024/01/25 13:15:20;;;;;;;;;;;;;;;7.44;100.00;102707.22;5018287;28;20115;-67
2024/01/25 13:17:46;;;;;;;;;;;;;;;7.44;100.00;102704.59;5025252;28;19917;-71
2024/01/25 13:20:11;;;;;;;;;;;;;;;7.24;100.00;102709.19;5033256;28;19920;-72
2024/01/25 13:22:37;;;;;;;;;;;;;;;7.28;100.00;102698.94;5006952;28;19921;-67
2024/01/25 13:25:03;;;;;;;;;;;;;;;7.23;100.00;102697.88;5014684;28;19943;-72
2024/01/25 13:27:28;;;;;;;;;;;;;;;7.12;100.00;102696.66;5018291;28;19935;-67
2024/01/25 13:29:55;;;;;;;;;;;;;;;7.19;100.00;102693.41;5047195;28;19928;-67
2024/01/25 13:32:24;;;;;;;;;;;;;;;7.26;100.00;102684.94;5033807;28;20347;-67
2024/01/25 13:34:50;;;;;;;;;;;;;;;7.19;100.00;102675.16;5017933;28;19923;-72
2024/01/25 13:37:16;;;;;;;;;;;;;;;7.14;100.00;102681.06;5030986;28;20015;-72
2024/01/25 13:39:41;;;;;;;;;;;;;;;7.13;100.00;102668.88;5032581;28;19920;-67
2024/01/25 13:42:08;;;;;;;;;;;;;;;7.20;100.00;102661.28;5016408;28;20016;-67
2024/01/25 13:44:33;;;;;;;;;;;;;;;7.16;100.00;102668.97;5026546;28;19983;-72
2024/01/25 13:46:59;;;;;;;;;;;;;;;7.26;100.00;102656.25;5017003;28;20327;-71
2024/01/25 13:49:24;;;;;;;;;;;;;;;7.37;100.00;102653.09;5020291;28;20341;-71
2024/01/25 13:51:49;;;;;;;;;;;;;;;7.32;100.00;102657.31;5017479;28;20659;-70
2024/01/25 13:54:15;;;;;;;;;;;;;;;7.23;100.00;102650.09;4998789;28;19987;-72
2024/01/25 13:56:40;;;;;;;;;;;;;;;7.25;100.00;102654.47;5018260;28;19959;-72